createdAt,value
2023-05-05T00:04:29.547Z,18.87
2023-05-05T00:09:31.210Z,20.55
2023-05-05T00:14:34.214Z,20.33
2023-05-05T00:19:35.876Z,18.95
2023-05-05T00:24:37.574Z,17.62
2023-05-05T00:29:40.615Z,19.83
2023-05-05T00:34:42.274Z,18.58
2023-05-05T00:39:44.431Z,18.55
2023-05-05T00:44:47.638Z,18.55
2023-05-05T00:49:49.354Z,18.42
2023-05-05T00:54:51.187Z,18.23
2023-05-05T00:59:55.696Z,18.25
2023-05-05T01:04:57.735Z,18.30
2023-05-05T01:10:18.073Z,19.05
2023-05-05T01:15:31.618Z,17.83
2023-05-05T01:20:39.319Z,17.80
2023-05-05T01:26:04.345Z,17.90
2023-05-05T01:31:46.406Z,17.50
2023-05-05T01:36:56.452Z,18.35
2023-05-05T01:42:02.512Z,18.95
2023-05-05T01:47:06.585Z,19.20
2023-05-05T01:52:10.712Z,17.42
2023-05-05T01:57:14.285Z,18.92
2023-05-05T02:02:20.677Z,18.52
2023-05-05T02:07:24.138Z,19.00
2023-05-05T02:12:27.017Z,19.70
2023-05-05T02:17:30.842Z,17.37
2023-05-05T02:22:32.979Z,18.65
2023-05-05T02:27:37.193Z,18.50
2023-05-05T02:32:48.234Z,18.00
2023-05-05T02:37:54.638Z,19.17
2023-05-05T02:42:58.748Z,17.33
2023-05-05T02:48:05.204Z,21.42
2023-05-05T02:53:07.489Z,19.58
2023-05-05T02:58:20.732Z,18.62
2023-05-05T03:03:30.570Z,17.15
2023-05-05T03:08:39.689Z,18.90
2023-05-05T03:13:43.970Z,17.80
2023-05-05T03:18:49.851Z,19.17
2023-05-05T03:23:51.589Z,18.83
2023-05-05T03:28:53.216Z,20.33
2023-05-05T03:33:56.248Z,18.17
2023-05-05T03:38:58.333Z,18.35
2023-05-05T03:43:59.974Z,18.48
2023-05-05T03:49:03.300Z,20.02
2023-05-05T03:54:04.999Z,18.17
2023-05-05T03:59:06.631Z,19.02
2023-05-05T04:04:09.684Z,19.42
2023-05-05T04:09:11.429Z,20.75
2023-05-05T04:14:13.134Z,18.85
2023-05-05T04:19:16.126Z,18.33
2023-05-05T04:24:17.775Z,18.73
2023-05-05T04:29:19.595Z,17.60
2023-05-05T04:34:22.714Z,17.62
2023-05-05T04:39:24.453Z,19.15
2023-05-05T04:44:26.297Z,20.05
2023-05-05T04:49:30.819Z,18.95
2023-05-05T04:54:35.404Z,20.07
2023-05-05T04:59:37.166Z,20.02
2023-05-05T05:04:40.693Z,21.65
2023-05-05T05:09:42.509Z,20.12
2023-05-05T05:14:44.278Z,21.20
2023-05-05T05:19:47.272Z,19.05
2023-05-05T05:24:49.053Z,22.35
2023-05-05T05:29:50.789Z,18.95
2023-05-05T05:34:53.860Z,25.70
2023-05-05T05:39:55.701Z,26.65
2023-05-05T05:44:57.773Z,19.95
2023-05-05T05:50:00.918Z,20.33
2023-05-05T05:55:02.700Z,18.50
2023-05-05T06:00:05.778Z,19.90
2023-05-05T06:05:09.616Z,20.20
2023-05-05T06:10:25.617Z,20.90
2023-05-05T06:15:28.743Z,22.95
2023-05-05T06:20:31.953Z,19.92
2023-05-05T06:25:33.673Z,23.25
2023-05-05T06:30:35.425Z,21.62
2023-05-05T06:35:38.505Z,21.25
2023-05-05T06:40:40.172Z,19.23
2023-05-05T06:45:43.670Z,20.33
2023-05-05T06:50:46.929Z,19.67
2023-05-05T06:55:48.593Z,22.55
2023-05-05T07:00:50.424Z,18.23
2023-05-05T07:05:53.571Z,20.75
2023-05-05T07:10:55.402Z,19.87
2023-05-05T07:16:25.514Z,19.45
2023-05-05T07:21:28.606Z,20.90
2023-05-05T07:26:30.473Z,19.65
2023-05-05T07:31:32.473Z,20.52
2023-05-05T07:36:35.652Z,16.62
2023-05-05T07:41:37.466Z,16.80
2023-05-05T07:46:39.274Z,17.48
2023-05-05T07:51:42.402Z,16.55
2023-05-05T07:56:44.262Z,17.87
2023-05-05T08:01:46.073Z,16.80
2023-05-05T08:06:49.891Z,15.35
2023-05-05T08:11:51.685Z,16.75
2023-05-05T08:16:53.360Z,15.32
2023-05-05T08:21:56.451Z,17.15
2023-05-05T08:26:58.145Z,16.95
2023-05-05T08:31:59.870Z,19.37
2023-05-05T08:37:02.903Z,16.37
2023-05-05T08:42:04.785Z,16.27
2023-05-05T08:47:10.769Z,16.75
2023-05-05T08:52:17.648Z,15.80
2023-05-05T08:57:25.805Z,17.05
2023-05-05T09:02:29.340Z,14.93
2023-05-05T09:07:33.824Z,14.32
2023-05-05T09:12:35.736Z,13.33
2023-05-05T09:17:38.724Z,14.95
2023-05-05T09:22:43.318Z,13.52
2023-05-05T09:27:46.727Z,14.70
2023-05-05T09:32:50.751Z,12.95
2023-05-05T09:37:53.995Z,13.50
2023-05-05T09:43:01.556Z,11.65
2023-05-05T09:48:04.773Z,11.77
2023-05-05T09:53:08.290Z,10.63
2023-05-05T09:58:19.886Z,10.43
2023-05-05T10:03:22.019Z,12.15
2023-05-05T10:08:27.264Z,12.88
2023-05-05T10:13:29.823Z,10.48
2023-05-05T10:18:32.232Z,10.00
2023-05-05T10:23:39.601Z,10.60
2023-05-05T10:28:44.379Z,10.90
2023-05-05T10:38:55.612Z,10.48
2023-05-05T10:44:00.009Z,10.80
2023-05-05T10:49:13.527Z,9.80
2023-05-05T10:54:32.407Z,9.77
2023-05-05T10:59:43.512Z,10.05
2023-05-05T11:05:13.270Z,10.05
2023-05-05T11:10:17.701Z,9.80
2023-05-05T11:15:35.007Z,8.10
2023-05-05T11:21:05.470Z,8.93
2023-05-05T11:26:08.728Z,8.75
2023-05-05T11:31:18.514Z,8.70
2023-05-05T11:36:21.154Z,7.53
2023-05-05T11:41:43.693Z,9.00
2023-05-05T11:47:18.702Z,8.45
2023-05-05T11:52:20.432Z,9.38
2023-05-05T11:57:29.573Z,8.75
2023-05-05T12:02:31.636Z,8.43
2023-05-05T12:07:33.636Z,8.98
2023-05-05T12:12:38.123Z,8.35
2023-05-05T12:22:42.459Z,7.62
2023-05-05T12:27:52.280Z,8.98
2023-05-05T12:33:01.219Z,8.38
2023-05-05T12:38:03.364Z,8.52
2023-05-05T12:43:06.525Z,8.38
2023-05-05T12:48:23.636Z,7.90
2023-05-05T12:53:25.628Z,8.30
2023-05-05T12:58:28.658Z,8.82
2023-05-05T13:03:30.590Z,7.20
2023-05-05T13:08:42.284Z,8.15
2023-05-05T13:13:45.324Z,7.95
2023-05-05T13:18:47.829Z,9.30
2023-05-05T13:23:49.619Z,7.60
2023-05-05T13:28:52.780Z,8.10
2023-05-05T13:33:54.500Z,7.80
2023-05-05T13:38:56.207Z,7.95
2023-05-05T13:43:59.254Z,8.43
2023-05-05T13:49:01.033Z,8.68
2023-05-05T13:54:02.881Z,7.90
2023-05-05T13:59:06.045Z,8.98
2023-05-05T14:04:08.420Z,8.70
2023-05-05T14:09:10.211Z,9.43
2023-05-05T14:14:13.391Z,8.82
2023-05-05T14:19:15.103Z,7.95
2023-05-05T14:24:16.808Z,8.65
2023-05-05T14:29:22.207Z,8.80
2023-05-05T14:34:23.921Z,9.10
2023-05-05T14:39:25.667Z,8.70
2023-05-05T14:44:28.834Z,10.02
2023-05-05T14:49:30.534Z,8.35
2023-05-05T14:54:32.210Z,8.68
2023-05-05T14:59:35.276Z,9.65
2023-05-05T15:04:36.935Z,10.65
2023-05-05T15:09:38.623Z,10.32
2023-05-05T15:14:41.815Z,9.68
2023-05-05T15:19:43.776Z,11.12
2023-05-05T15:24:45.564Z,10.00
2023-05-05T15:29:48.612Z,10.40
2023-05-05T15:34:50.593Z,12.68
2023-05-05T15:39:52.552Z,12.40
2023-05-05T15:44:55.696Z,12.82
2023-05-05T15:49:57.371Z,12.13
2023-05-05T15:54:59.064Z,12.30
2023-05-05T16:00:02.218Z,11.45
2023-05-05T16:05:04.186Z,12.40
2023-05-05T16:10:07.088Z,12.05
2023-05-05T16:15:11.499Z,12.00
2023-05-05T16:20:14.029Z,11.80
2023-05-05T16:25:15.729Z,11.90
2023-05-05T16:30:19.021Z,11.93
2023-05-05T16:35:21.104Z,12.37
2023-05-05T16:40:22.936Z,11.82
2023-05-05T16:45:26.025Z,12.52
2023-05-05T16:50:27.826Z,12.20
2023-05-05T16:55:29.546Z,12.77
2023-05-05T17:00:32.695Z,12.32
2023-05-05T17:05:34.442Z,13.15
2023-05-05T17:10:36.573Z,12.77
2023-05-05T17:15:40.036Z,12.20
2023-05-05T17:20:42.064Z,11.60
2023-05-05T17:25:43.728Z,11.10
2023-05-05T17:30:46.811Z,12.68
2023-05-05T17:35:48.700Z,12.10
2023-05-05T17:40:50.511Z,12.80
2023-05-05T17:45:53.880Z,11.85
2023-05-05T17:50:55.596Z,11.12
2023-05-05T17:55:57.306Z,12.25
2023-05-05T18:01:00.437Z,13.95
2023-05-05T18:06:02.144Z,12.95
2023-05-05T18:11:03.866Z,11.45
2023-05-05T18:16:07.367Z,12.02
2023-05-05T18:21:09.207Z,13.18
2023-05-05T18:26:11.175Z,12.55
2023-05-05T18:31:14.296Z,13.30
2023-05-05T18:36:15.991Z,12.88
2023-05-05T18:41:17.650Z,12.93
2023-05-05T18:46:20.806Z,12.52
2023-05-05T18:51:22.550Z,13.00
2023-05-05T18:56:24.230Z,11.18
2023-05-05T19:01:27.527Z,13.77
2023-05-05T19:06:29.296Z,11.60
2023-05-05T19:11:31.027Z,13.20
2023-05-05T19:16:34.200Z,12.70
2023-05-05T19:21:35.884Z,12.10
2023-05-05T19:26:37.636Z,12.70
2023-05-05T19:31:40.883Z,12.35
2023-05-05T19:36:44.278Z,12.13
2023-05-05T19:41:45.974Z,12.37
2023-05-05T19:46:49.014Z,12.65
2023-05-05T19:51:50.787Z,12.20
2023-05-05T19:56:53.703Z,12.60
2023-05-05T20:01:57.862Z,12.27
2023-05-05T20:06:59.814Z,11.65
2023-05-05T20:12:01.606Z,12.70
2023-05-05T20:17:04.633Z,11.38
2023-05-05T20:22:06.404Z,12.20
2023-05-05T20:27:08.161Z,11.70
2023-05-05T20:32:11.354Z,12.37
2023-05-05T20:37:13.946Z,12.02
2023-05-05T20:42:15.811Z,12.98
2023-05-05T20:47:18.941Z,10.98
2023-05-05T20:52:20.633Z,12.50
2023-05-05T20:57:22.355Z,12.07
2023-05-05T21:02:25.563Z,12.70
2023-05-05T21:07:27.304Z,12.43
2023-05-05T21:12:29.374Z,11.88
2023-05-05T21:17:32.618Z,11.88
2023-05-05T21:22:34.419Z,12.75
2023-05-05T21:27:36.057Z,11.25
2023-05-05T21:32:39.703Z,13.00
2023-05-05T21:37:41.810Z,11.70
2023-05-05T21:42:43.762Z,10.98
2023-05-05T21:47:46.989Z,11.73
2023-05-05T21:52:48.713Z,11.27
2023-05-05T21:57:50.391Z,11.32
2023-05-05T22:02:53.470Z,10.68
2023-05-05T22:07:55.325Z,11.63
2023-05-05T22:12:57.107Z,12.60
2023-05-05T22:18:00.301Z,11.85
2023-05-05T22:23:02.002Z,12.50
2023-05-05T22:28:04.091Z,12.40
2023-05-05T22:33:07.327Z,12.52
2023-05-05T22:38:09.182Z,12.48
2023-05-05T22:43:10.956Z,13.48
2023-05-05T22:48:14.006Z,11.38
2023-05-05T22:53:15.725Z,11.48
2023-05-05T22:58:17.485Z,11.32
2023-05-05T23:03:20.552Z,11.38
2023-05-05T23:08:22.258Z,12.55
2023-05-05T23:13:23.984Z,12.35
2023-05-05T23:18:27.073Z,11.68
2023-05-05T23:23:29.730Z,12.07
2023-05-05T23:28:31.469Z,12.32
2023-05-05T23:33:34.633Z,11.48
2023-05-05T23:38:36.357Z,13.98
2023-05-05T23:43:38.095Z,11.90
2023-05-05T23:48:41.149Z,12.57
2023-05-05T23:53:42.897Z,12.68
2023-05-05T23:58:44.651Z,12.77
